sensor_id;sensor_type;location;lat;lon;timestamp;temperature;humidity
21508;DHT22;10915;54.352;9.074;2023-12-29T00:02:21;9.00;99.90
21508;DHT22;10915;54.352;9.074;2023-12-29T00:04:46;9.00;99.90
21508;DHT22;10915;54.352;9.074;2023-12-29T00:07:12;8.90;99.90
21508;DHT22;10915;54.352;9.074;2023-12-29T00:09:38;9.00;99.90
21508;DHT22;10915;54.352;9.074;2023-12-29T00:12:06;9.00;99.90
21508;DHT22;10915;54.352;9.074;2023-12-29T00:14:33;9.00;99.90
21508;DHT22;10915;54.352;9.074;2023-12-29T00:16:58;9.00;99.90
21508;DHT22;10915;54.352;9.074;2023-12-29T00:19:25;9.00;99.90
21508;DHT22;10915;54.352;9.074;2023-12-29T00:21:50;8.90;99.90
21508;DHT22;10915;54.352;9.074;2023-12-29T00:24:16;9.00;99.90
21508;DHT22;10915;54.352;9.074;2023-12-29T00:26:42;9.00;99.90
21508;DHT22;10915;54.352;9.074;2023-12-29T00:29:08;8.90;99.90
21508;DHT22;10915;54.352;9.074;2023-12-29T00:31:33;8.90;99.90
21508;DHT22;10915;54.352;9.074;2023-12-29T00:33:59;8.90;99.90
21508;DHT22;10915;54.352;9.074;2023-12-29T00:36:25;8.90;99.90
21508;DHT22;10915;54.352;9.074;2023-12-29T00:38:50;8.90;99.90
21508;DHT22;10915;54.352;9.074;2023-12-29T00:41:16;8.90;99.90
21508;DHT22;10915;54.352;9.074;2023-12-29T00:43:42;8.90;99.90
21508;DHT22;10915;54.352;9.074;2023-12-29T00:46:08;8.90;99.90
21508;DHT22;10915;54.352;9.074;2023-12-29T00:48:34;8.90;99.90
21508;DHT22;10915;54.352;9.074;2023-12-29T00:51:03;8.90;99.90
21508;DHT22;10915;54.352;9.074;2023-12-29T00:53:29;8.90;99.90
21508;DHT22;10915;54.352;9.074;2023-12-29T00:55:57;9.00;99.90
21508;DHT22;10915;54.352;9.074;2023-12-29T00:58:23;9.00;99.90
21508;DHT22;10915;54.352;9.074;2023-12-29T01:00:49;9.00;99.90
21508;DHT22;10915;54.352;9.074;2023-12-29T01:03:14;9.00;99.90
21508;DHT22;10915;54.352;9.074;2023-12-29T01:05:40;9.00;99.90
21508;DHT22;10915;54.352;9.074;2023-12-29T01:08:05;9.10;99.90
21508;DHT22;10915;54.352;9.074;2023-12-29T01:10:31;9.10;99.90
21508;DHT22;10915;54.352;9.074;2023-12-29T01:12:56;9.10;99.90
21508;DHT22;10915;54.352;9.074;2023-12-29T01:15:22;9.10;99.90
21508;DHT22;10915;54.352;9.074;2023-12-29T01:17:48;9.10;99.90
21508;DHT22;10915;54.352;9.074;2023-12-29T01:20:13;9.10;99.90
21508;DHT22;10915;54.352;9.074;2023-12-29T01:22:39;9.10;99.90
21508;DHT22;10915;54.352;9.074;2023-12-29T01:25:04;9.10;99.90
21508;DHT22;10915;54.352;9.074;2023-12-29T01:27:31;9.00;99.90
21508;DHT22;10915;54.352;9.074;2023-12-29T01:29:56;9.10;99.90
21508;DHT22;10915;54.352;9.074;2023-12-29T01:32:22;9.00;99.90
21508;DHT22;10915;54.352;9.074;2023-12-29T01:34:48;9.00;99.90
21508;DHT22;10915;54.352;9.074;2023-12-29T01:37:13;9.00;99.90
21508;DHT22;10915;54.352;9.074;2023-12-29T01:39:39;9.00;99.90
21508;DHT22;10915;54.352;9.074;2023-12-29T01:42:06;9.00;99.90
21508;DHT22;10915;54.352;9.074;2023-12-29T01:44:32;9.00;99.90
21508;DHT22;10915;54.352;9.074;2023-12-29T01:47:00;9.10;99.90
21508;DHT22;10915;54.352;9.074;2023-12-29T01:49:26;9.10;99.90
21508;DHT22;10915;54.352;9.074;2023-12-29T01:52:00;9.10;99.90
21508;DHT22;10915;54.352;9.074;2023-12-29T01:54:28;9.10;99.90
21508;DHT22;10915;54.352;9.074;2023-12-29T01:56:57;9.10;99.90
21508;DHT22;10915;54.352;9.074;2023-12-29T01:59:25;9.10;99.90
21508;DHT22;10915;54.352;9.074;2023-12-29T02:01:51;9.10;99.90
21508;DHT22;10915;54.352;9.074;2023-12-29T02:04:18;9.10;99.90
21508;DHT22;10915;54.352;9.074;2023-12-29T02:06:44;9.10;99.90
21508;DHT22;10915;54.352;9.074;2023-12-29T02:09:10;9.10;99.90
21508;DHT22;10915;54.352;9.074;2023-12-29T02:11:38;9.10;99.90
21508;DHT22;10915;54.352;9.074;2023-12-29T02:14:03;9.10;99.90
21508;DHT22;10915;54.352;9.074;2023-12-29T02:22:00;9.00;99.90
21508;DHT22;10915;54.352;9.074;2023-12-29T02:24:26;9.00;99.90
21508;DHT22;10915;54.352;9.074;2023-12-29T02:27:07;9.00;99.90
21508;DHT22;10915;54.352;9.074;2023-12-29T02:29:38;9.00;99.90
21508;DHT22;10915;54.352;9.074;2023-12-29T02:32:07;9.00;99.90
21508;DHT22;10915;54.352;9.074;2023-12-29T02:34:36;8.90;99.90
21508;DHT22;10915;54.352;9.074;2023-12-29T02:37:04;9.00;99.90
21508;DHT22;10915;54.352;9.074;2023-12-29T02:39:30;9.10;99.90
21508;DHT22;10915;54.352;9.074;2023-12-29T02:41:56;9.00;99.90
21508;DHT22;10915;54.352;9.074;2023-12-29T02:44:22;9.00;99.90
21508;DHT22;10915;54.352;9.074;2023-12-29T02:46:48;9.00;99.90
21508;DHT22;10915;54.352;9.074;2023-12-29T02:49:13;9.00;99.90
21508;DHT22;10915;54.352;9.074;2023-12-29T02:51:39;9.00;99.90
21508;DHT22;10915;54.352;9.074;2023-12-29T02:54:05;9.00;99.90
21508;DHT22;10915;54.352;9.074;2023-12-29T02:56:32;9.00;99.90
21508;DHT22;10915;54.352;9.074;2023-12-29T02:58:58;9.00;99.90
21508;DHT22;10915;54.352;9.074;2023-12-29T03:01:24;8.90;99.90
21508;DHT22;10915;54.352;9.074;2023-12-29T03:03:49;8.90;99.90
21508;DHT22;10915;54.352;9.074;2023-12-29T03:06:15;8.90;99.90
21508;DHT22;10915;54.352;9.074;2023-12-29T03:08:40;8.90;99.90
21508;DHT22;10915;54.352;9.074;2023-12-29T03:11:06;8.90;99.90
21508;DHT22;10915;54.352;9.074;2023-12-29T03:13:32;8.90;99.90
21508;DHT22;10915;54.352;9.074;2023-12-29T03:15:57;8.90;99.90
21508;DHT22;10915;54.352;9.074;2023-12-29T03:18:23;8.90;99.90
21508;DHT22;10915;54.352;9.074;2023-12-29T03:20:48;9.00;99.90
21508;DHT22;10915;54.352;9.074;2023-12-29T03:23:14;9.00;99.90
21508;DHT22;10915;54.352;9.074;2023-12-29T03:25:40;9.00;99.90
21508;DHT22;10915;54.352;9.074;2023-12-29T03:28:05;9.00;99.90
21508;DHT22;10915;54.352;9.074;2023-12-29T03:30:31;9.00;99.90
21508;DHT22;10915;54.352;9.074;2023-12-29T03:32:57;8.90;99.90
21508;DHT22;10915;54.352;9.074;2023-12-29T03:35:22;8.90;99.90
21508;DHT22;10915;54.352;9.074;2023-12-29T03:37:48;8.90;99.90
21508;DHT22;10915;54.352;9.074;2023-12-29T03:40:14;8.90;99.90
21508;DHT22;10915;54.352;9.074;2023-12-29T03:42:40;8.90;99.90
21508;DHT22;10915;54.352;9.074;2023-12-29T03:45:06;8.90;99.90
21508;DHT22;10915;54.352;9.074;2023-12-29T03:47:32;8.90;99.90
21508;DHT22;10915;54.352;9.074;2023-12-29T03:49:58;8.90;99.90
21508;DHT22;10915;54.352;9.074;2023-12-29T03:52:23;8.90;99.90
21508;DHT22;10915;54.352;9.074;2023-12-29T03:54:49;8.90;99.90
21508;DHT22;10915;54.352;9.074;2023-12-29T03:57:14;9.00;99.90
21508;DHT22;10915;54.352;9.074;2023-12-29T03:59:40;9.00;99.90
21508;DHT22;10915;54.352;9.074;2023-12-29T04:02:06;9.00;99.90
21508;DHT22;10915;54.352;9.074;2023-12-29T04:04:31;9.00;99.90
21508;DHT22;10915;54.352;9.074;2023-12-29T04:06:57;9.00;99.90
21508;DHT22;10915;54.352;9.074;2023-12-29T04:09:23;9.00;99.90
21508;DHT22;10915;54.352;9.074;2023-12-29T04:11:48;9.10;99.90
21508;DHT22;10915;54.352;9.074;2023-12-29T04:14:14;9.10;99.90
21508;DHT22;10915;54.352;9.074;2023-12-29T04:16:40;9.10;99.90
21508;DHT22;10915;54.352;9.074;2023-12-29T04:19:05;9.10;99.90
21508;DHT22;10915;54.352;9.074;2023-12-29T04:21:31;9.10;99.90
21508;DHT22;10915;54.352;9.074;2023-12-29T04:23:57;9.10;99.90
21508;DHT22;10915;54.352;9.074;2023-12-29T04:26:22;9.10;99.90
21508;DHT22;10915;54.352;9.074;2023-12-29T04:28:48;9.20;99.90
21508;DHT22;10915;54.352;9.074;2023-12-29T04:31:13;9.10;99.90
21508;DHT22;10915;54.352;9.074;2023-12-29T04:33:39;9.10;99.90
21508;DHT22;10915;54.352;9.074;2023-12-29T04:36:05;9.20;99.90
21508;DHT22;10915;54.352;9.074;2023-12-29T04:38:30;9.20;99.90
21508;DHT22;10915;54.352;9.074;2023-12-29T04:40:56;9.20;99.90
21508;DHT22;10915;54.352;9.074;2023-12-29T04:43:22;9.20;99.90
21508;DHT22;10915;54.352;9.074;2023-12-29T04:45:47;9.10;99.90
21508;DHT22;10915;54.352;9.074;2023-12-29T04:48:13;9.10;99.90
21508;DHT22;10915;54.352;9.074;2023-12-29T04:50:38;9.10;99.90
21508;DHT22;10915;54.352;9.074;2023-12-29T04:53:04;9.00;99.90
21508;DHT22;10915;54.352;9.074;2023-12-29T04:55:30;8.90;99.90
21508;DHT22;10915;54.352;9.074;2023-12-29T04:57:55;8.90;99.90
21508;DHT22;10915;54.352;9.074;2023-12-29T05:00:21;8.90;99.90
21508;DHT22;10915;54.352;9.074;2023-12-29T05:02:46;8.90;99.90
21508;DHT22;10915;54.352;9.074;2023-12-29T05:05:12;8.80;99.90
21508;DHT22;10915;54.352;9.074;2023-12-29T05:07:38;8.90;99.90
21508;DHT22;10915;54.352;9.074;2023-12-29T05:10:03;8.90;99.90
21508;DHT22;10915;54.352;9.074;2023-12-29T05:12:29;8.90;99.90
21508;DHT22;10915;54.352;9.074;2023-12-29T05:14:55;8.80;99.90
21508;DHT22;10915;54.352;9.074;2023-12-29T05:17:21;8.80;99.90
21508;DHT22;10915;54.352;9.074;2023-12-29T05:19:46;8.80;99.90
21508;DHT22;10915;54.352;9.074;2023-12-29T05:22:12;8.70;99.90
21508;DHT22;10915;54.352;9.074;2023-12-29T05:24:41;8.70;99.90
21508;DHT22;10915;54.352;9.074;2023-12-29T05:27:07;8.70;99.90
21508;DHT22;10915;54.352;9.074;2023-12-29T05:29:32;8.60;99.90
21508;DHT22;10915;54.352;9.074;2023-12-29T05:31:58;8.60;99.90
21508;DHT22;10915;54.352;9.074;2023-12-29T05:34:24;8.60;99.90
21508;DHT22;10915;54.352;9.074;2023-12-29T05:36:49;8.60;99.90
21508;DHT22;10915;54.352;9.074;2023-12-29T05:39:15;8.60;99.90
21508;DHT22;10915;54.352;9.074;2023-12-29T05:41:41;8.60;99.90
21508;DHT22;10915;54.352;9.074;2023-12-29T05:44:06;8.60;99.90
21508;DHT22;10915;54.352;9.074;2023-12-29T05:46:32;8.60;99.90
21508;DHT22;10915;54.352;9.074;2023-12-29T05:48:58;8.60;99.90
21508;DHT22;10915;54.352;9.074;2023-12-29T05:51:24;8.60;99.90
21508;DHT22;10915;54.352;9.074;2023-12-29T05:53:49;8.60;99.90
21508;DHT22;10915;54.352;9.074;2023-12-29T05:56:15;8.60;99.90
21508;DHT22;10915;54.352;9.074;2023-12-29T05:58:41;8.60;99.90
21508;DHT22;10915;54.352;9.074;2023-12-29T06:01:10;8.60;99.90
21508;DHT22;10915;54.352;9.074;2023-12-29T06:03:36;8.60;99.90
21508;DHT22;10915;54.352;9.074;2023-12-29T06:06:02;8.60;99.90
21508;DHT22;10915;54.352;9.074;2023-12-29T06:08:27;8.60;99.90
21508;DHT22;10915;54.352;9.074;2023-12-29T06:10:53;8.60;99.90
21508;DHT22;10915;54.352;9.074;2023-12-29T06:13:19;8.60;99.90
21508;DHT22;10915;54.352;9.074;2023-12-29T06:15:44;8.60;99.90
21508;DHT22;10915;54.352;9.074;2023-12-29T06:18:10;8.70;99.90
21508;DHT22;10915;54.352;9.074;2023-12-29T06:20:36;8.60;99.90
21508;DHT22;10915;54.352;9.074;2023-12-29T06:23:01;8.60;99.90
21508;DHT22;10915;54.352;9.074;2023-12-29T06:25:27;8.60;99.90
21508;DHT22;10915;54.352;9.074;2023-12-29T06:27:53;8.60;99.90
21508;DHT22;10915;54.352;9.074;2023-12-29T06:30:20;8.60;99.90
21508;DHT22;10915;54.352;9.074;2023-12-29T06:32:46;8.50;99.90
21508;DHT22;10915;54.352;9.074;2023-12-29T06:35:11;8.60;99.90
21508;DHT22;10915;54.352;9.074;2023-12-29T06:37:38;8.60;99.90
21508;DHT22;10915;54.352;9.074;2023-12-29T06:40:05;8.60;99.90
21508;DHT22;10915;54.352;9.074;2023-12-29T06:42:32;8.60;99.90
21508;DHT22;10915;54.352;9.074;2023-12-29T06:44:57;8.60;99.90
21508;DHT22;10915;54.352;9.074;2023-12-29T06:47:23;8.60;99.90
21508;DHT22;10915;54.352;9.074;2023-12-29T06:49:49;8.60;99.90
21508;DHT22;10915;54.352;9.074;2023-12-29T06:52:15;8.60;99.90
21508;DHT22;10915;54.352;9.074;2023-12-29T06:54:41;8.60;99.90
21508;DHT22;10915;54.352;9.074;2023-12-29T06:57:07;8.50;99.90
21508;DHT22;10915;54.352;9.074;2023-12-29T06:59:32;8.50;99.90
21508;DHT22;10915;54.352;9.074;2023-12-29T07:01:58;8.50;99.90
21508;DHT22;10915;54.352;9.074;2023-12-29T07:04:23;8.40;99.90
21508;DHT22;10915;54.352;9.074;2023-12-29T07:06:49;8.40;99.90
21508;DHT22;10915;54.352;9.074;2023-12-29T07:09:15;8.40;99.90
21508;DHT22;10915;54.352;9.074;2023-12-29T07:11:40;8.40;99.90
21508;DHT22;10915;54.352;9.074;2023-12-29T07:14:06;8.40;99.90
21508;DHT22;10915;54.352;9.074;2023-12-29T07:16:31;8.40;99.90
21508;DHT22;10915;54.352;9.074;2023-12-29T07:18:57;8.40;99.90
21508;DHT22;10915;54.352;9.074;2023-12-29T07:21:23;8.40;99.90
21508;DHT22;10915;54.352;9.074;2023-12-29T07:23:48;8.40;99.90
21508;DHT22;10915;54.352;9.074;2023-12-29T07:26:14;8.30;99.90
21508;DHT22;10915;54.352;9.074;2023-12-29T07:28:40;8.30;99.90
21508;DHT22;10915;54.352;9.074;2023-12-29T07:31:05;8.20;99.90
21508;DHT22;10915;54.352;9.074;2023-12-29T07:33:31;8.20;99.90
21508;DHT22;10915;54.352;9.074;2023-12-29T07:35:57;8.20;99.90
21508;DHT22;10915;54.352;9.074;2023-12-29T07:38:23;8.20;99.90
21508;DHT22;10915;54.352;9.074;2023-12-29T07:40:49;8.20;99.90
21508;DHT22;10915;54.352;9.074;2023-12-29T07:43:15;8.20;99.90
21508;DHT22;10915;54.352;9.074;2023-12-29T07:45:40;8.30;99.90
21508;DHT22;10915;54.352;9.074;2023-12-29T07:48:08;8.30;99.90
21508;DHT22;10915;54.352;9.074;2023-12-29T07:50:34;8.20;99.90
21508;DHT22;10915;54.352;9.074;2023-12-29T07:53:00;8.20;99.90
21508;DHT22;10915;54.352;9.074;2023-12-29T07:55:29;8.30;99.90
21508;DHT22;10915;54.352;9.074;2023-12-29T07:57:54;8.30;99.90
21508;DHT22;10915;54.352;9.074;2023-12-29T08:00:20;8.30;99.90
21508;DHT22;10915;54.352;9.074;2023-12-29T08:02:45;8.30;99.90
21508;DHT22;10915;54.352;9.074;2023-12-29T08:05:11;8.30;99.90
21508;DHT22;10915;54.352;9.074;2023-12-29T08:07:37;8.20;99.90
21508;DHT22;10915;54.352;9.074;2023-12-29T08:10:05;8.20;99.90
21508;DHT22;10915;54.352;9.074;2023-12-29T08:12:31;8.20;99.90
21508;DHT22;10915;54.352;9.074;2023-12-29T08:14:58;8.30;99.90
21508;DHT22;10915;54.352;9.074;2023-12-29T08:17:24;8.20;99.90
21508;DHT22;10915;54.352;9.074;2023-12-29T08:19:49;8.30;99.90
21508;DHT22;10915;54.352;9.074;2023-12-29T08:22:15;8.30;99.90
21508;DHT22;10915;54.352;9.074;2023-12-29T08:24:41;8.30;99.90
21508;DHT22;10915;54.352;9.074;2023-12-29T08:27:12;8.30;99.90
21508;DHT22;10915;54.352;9.074;2023-12-29T08:29:37;8.30;99.90
21508;DHT22;10915;54.352;9.074;2023-12-29T08:32:03;8.30;99.90
21508;DHT22;10915;54.352;9.074;2023-12-29T08:34:29;8.30;99.90
21508;DHT22;10915;54.352;9.074;2023-12-29T08:36:55;8.30;99.90
21508;DHT22;10915;54.352;9.074;2023-12-29T08:39:20;8.40;99.90
21508;DHT22;10915;54.352;9.074;2023-12-29T08:41:47;8.30;99.90
21508;DHT22;10915;54.352;9.074;2023-12-29T08:44:12;8.40;99.90
21508;DHT22;10915;54.352;9.074;2023-12-29T08:46:38;8.30;99.90
21508;DHT22;10915;54.352;9.074;2023-12-29T08:49:03;8.30;99.90
21508;DHT22;10915;54.352;9.074;2023-12-29T08:51:29;8.40;99.90
21508;DHT22;10915;54.352;9.074;2023-12-29T08:53:55;8.40;99.90
21508;DHT22;10915;54.352;9.074;2023-12-29T08:56:21;8.40;99.90
21508;DHT22;10915;54.352;9.074;2023-12-29T08:58:46;8.40;99.90
21508;DHT22;10915;54.352;9.074;2023-12-29T09:01:12;8.50;99.90
21508;DHT22;10915;54.352;9.074;2023-12-29T09:03:37;8.60;99.90
21508;DHT22;10915;54.352;9.074;2023-12-29T09:06:04;8.70;99.90
21508;DHT22;10915;54.352;9.074;2023-12-29T09:08:30;8.70;99.90
21508;DHT22;10915;54.352;9.074;2023-12-29T09:10:55;8.70;99.90
21508;DHT22;10915;54.352;9.074;2023-12-29T09:13:21;8.70;99.90
21508;DHT22;10915;54.352;9.074;2023-12-29T09:15:50;8.70;99.90
21508;DHT22;10915;54.352;9.074;2023-12-29T09:18:16;8.70;99.90
21508;DHT22;10915;54.352;9.074;2023-12-29T09:20:41;8.80;99.90
21508;DHT22;10915;54.352;9.074;2023-12-29T09:23:07;8.80;99.90
21508;DHT22;10915;54.352;9.074;2023-12-29T09:25:33;8.80;99.90
21508;DHT22;10915;54.352;9.074;2023-12-29T09:27:58;8.80;99.90
21508;DHT22;10915;54.352;9.074;2023-12-29T09:30:24;8.80;99.90
21508;DHT22;10915;54.352;9.074;2023-12-29T09:32:50;8.80;99.90
21508;DHT22;10915;54.352;9.074;2023-12-29T09:35:15;8.80;99.90
21508;DHT22;10915;54.352;9.074;2023-12-29T09:37:42;8.90;99.90
21508;DHT22;10915;54.352;9.074;2023-12-29T09:40:10;8.90;99.90
21508;DHT22;10915;54.352;9.074;2023-12-29T09:42:37;8.90;99.90
21508;DHT22;10915;54.352;9.074;2023-12-29T09:45:08;8.90;99.90
21508;DHT22;10915;54.352;9.074;2023-12-29T09:47:40;8.90;99.90
21508;DHT22;10915;54.352;9.074;2023-12-29T09:50:16;8.90;99.90
21508;DHT22;10915;54.352;9.074;2023-12-29T09:52:43;8.90;99.90
21508;DHT22;10915;54.352;9.074;2023-12-29T09:55:09;8.90;99.90
21508;DHT22;10915;54.352;9.074;2023-12-29T09:57:37;8.90;99.90
21508;DHT22;10915;54.352;9.074;2023-12-29T10:00:03;9.00;99.90
21508;DHT22;10915;54.352;9.074;2023-12-29T10:02:30;9.00;99.90
21508;DHT22;10915;54.352;9.074;2023-12-29T10:04:56;9.00;99.90
21508;DHT22;10915;54.352;9.074;2023-12-29T10:07:26;9.00;99.90
21508;DHT22;10915;54.352;9.074;2023-12-29T10:09:56;9.00;99.90
21508;DHT22;10915;54.352;9.074;2023-12-29T10:12:24;9.00;99.90
21508;DHT22;10915;54.352;9.074;2023-12-29T10:15:17;9.00;99.90
21508;DHT22;10915;54.352;9.074;2023-12-29T10:18:14;9.00;99.90
21508;DHT22;10915;54.352;9.074;2023-12-29T10:21:08;8.90;99.90
21508;DHT22;10915;54.352;9.074;2023-12-29T10:23:43;8.80;99.90
21508;DHT22;10915;54.352;9.074;2023-12-29T10:26:11;8.80;99.90
21508;DHT22;10915;54.352;9.074;2023-12-29T10:28:37;8.80;99.90
21508;DHT22;10915;54.352;9.074;2023-12-29T10:31:04;8.80;99.90
21508;DHT22;10915;54.352;9.074;2023-12-29T10:33:30;8.90;99.90
21508;DHT22;10915;54.352;9.074;2023-12-29T10:36:01;8.90;99.90
21508;DHT22;10915;54.352;9.074;2023-12-29T10:38:33;8.90;99.90
21508;DHT22;10915;54.352;9.074;2023-12-29T10:41:16;9.00;99.90
21508;DHT22;10915;54.352;9.074;2023-12-29T10:43:43;9.00;99.90
21508;DHT22;10915;54.352;9.074;2023-12-29T10:46:10;9.00;99.90
21508;DHT22;10915;54.352;9.074;2023-12-29T10:48:37;9.00;99.90
21508;DHT22;10915;54.352;9.074;2023-12-29T10:51:04;9.00;99.90
21508;DHT22;10915;54.352;9.074;2023-12-29T10:53:33;9.00;99.90
21508;DHT22;10915;54.352;9.074;2023-12-29T10:55:59;9.00;99.90
21508;DHT22;10915;54.352;9.074;2023-12-29T10:58:26;9.00;99.90
21508;DHT22;10915;54.352;9.074;2023-12-29T11:00:55;9.00;99.90
21508;DHT22;10915;54.352;9.074;2023-12-29T11:03:21;9.00;99.90
21508;DHT22;10915;54.352;9.074;2023-12-29T11:05:47;9.00;99.90
21508;DHT22;10915;54.352;9.074;2023-12-29T11:08:20;9.10;99.90
21508;DHT22;10915;54.352;9.074;2023-12-29T11:10:50;9.30;99.90
21508;DHT22;10915;54.352;9.074;2023-12-29T11:13:16;9.40;99.90
21508;DHT22;10915;54.352;9.074;2023-12-29T11:15:45;9.60;99.90
21508;DHT22;10915;54.352;9.074;2023-12-29T11:18:15;9.60;99.90
21508;DHT22;10915;54.352;9.074;2023-12-29T11:20:42;9.60;99.90
21508;DHT22;10915;54.352;9.074;2023-12-29T11:23:09;9.70;99.90
21508;DHT22;10915;54.352;9.074;2023-12-29T11:25:36;9.80;99.90
21508;DHT22;10915;54.352;9.074;2023-12-29T11:28:03;9.70;99.90
21508;DHT22;10915;54.352;9.074;2023-12-29T11:30:29;9.70;99.90
21508;DHT22;10915;54.352;9.074;2023-12-29T11:35:54;9.60;99.90
21508;DHT22;10915;54.352;9.074;2023-12-29T11:38:47;9.50;99.90
21508;DHT22;10915;54.352;9.074;2023-12-29T11:41:31;9.40;99.90
21508;DHT22;10915;54.352;9.074;2023-12-29T11:43:58;9.40;99.90
21508;DHT22;10915;54.352;9.074;2023-12-29T11:46:37;9.30;99.90
21508;DHT22;10915;54.352;9.074;2023-12-29T11:49:03;9.20;99.90
21508;DHT22;10915;54.352;9.074;2023-12-29T11:51:44;9.20;99.90
21508;DHT22;10915;54.352;9.074;2023-12-29T11:54:10;9.20;99.90
21508;DHT22;10915;54.352;9.074;2023-12-29T11:56:39;9.30;99.90
21508;DHT22;10915;54.352;9.074;2023-12-29T11:59:21;9.40;99.90
21508;DHT22;10915;54.352;9.074;2023-12-29T12:01:50;9.50;99.90
21508;DHT22;10915;54.352;9.074;2023-12-29T12:07:09;9.50;99.90
21508;DHT22;10915;54.352;9.074;2023-12-29T12:09:38;9.50;99.90
21508;DHT22;10915;54.352;9.074;2023-12-29T12:12:04;9.50;99.90
21508;DHT22;10915;54.352;9.074;2023-12-29T12:14:48;9.50;99.90
21508;DHT22;10915;54.352;9.074;2023-12-29T12:17:31;9.40;99.90
21508;DHT22;10915;54.352;9.074;2023-12-29T12:19:59;9.40;99.90
21508;DHT22;10915;54.352;9.074;2023-12-29T12:22:25;9.40;99.90
21508;DHT22;10915;54.352;9.074;2023-12-29T12:25:00;9.50;99.90
21508;DHT22;10915;54.352;9.074;2023-12-29T12:27:27;9.60;99.90
21508;DHT22;10915;54.352;9.074;2023-12-29T12:29:54;9.70;99.90
21508;DHT22;10915;54.352;9.074;2023-12-29T12:32:27;9.80;99.90
21508;DHT22;10915;54.352;9.074;2023-12-29T12:34:53;9.90;99.90
21508;DHT22;10915;54.352;9.074;2023-12-29T12:37:28;10.00;99.90
21508;DHT22;10915;54.352;9.074;2023-12-29T12:39:54;10.10;99.90
21508;DHT22;10915;54.352;9.074;2023-12-29T12:42:21;10.10;99.90
21508;DHT22;10915;54.352;9.074;2023-12-29T12:48:00;9.80;99.90
21508;DHT22;10915;54.352;9.074;2023-12-29T12:50:27;9.70;99.90
21508;DHT22;10915;54.352;9.074;2023-12-29T12:52:53;9.60;99.90
21508;DHT22;10915;54.352;9.074;2023-12-29T12:55:19;9.50;99.90
21508;DHT22;10915;54.352;9.074;2023-12-29T12:57:45;9.40;99.90
21508;DHT22;10915;54.352;9.074;2023-12-29T13:00:11;9.30;99.90
21508;DHT22;10915;54.352;9.074;2023-12-29T13:02:37;9.20;99.90
21508;DHT22;10915;54.352;9.074;2023-12-29T13:05:04;9.10;99.90
21508;DHT22;10915;54.352;9.074;2023-12-29T13:07:33;9.10;99.90
21508;DHT22;10915;54.352;9.074;2023-12-29T13:10:01;9.00;99.90
21508;DHT22;10915;54.352;9.074;2023-12-29T13:12:27;9.00;99.90
21508;DHT22;10915;54.352;9.074;2023-12-29T13:14:53;9.00;99.90
21508;DHT22;10915;54.352;9.074;2023-12-29T13:17:19;9.00;99.90
21508;DHT22;10915;54.352;9.074;2023-12-29T13:19:56;8.90;99.90
21508;DHT22;10915;54.352;9.074;2023-12-29T13:22:23;8.90;99.90
21508;DHT22;10915;54.352;9.074;2023-12-29T13:24:48;8.90;99.90
21508;DHT22;10915;54.352;9.074;2023-12-29T13:27:14;8.90;99.90
21508;DHT22;10915;54.352;9.074;2023-12-29T13:29:41;8.90;99.90
21508;DHT22;10915;54.352;9.074;2023-12-29T13:32:11;8.90;99.90
21508;DHT22;10915;54.352;9.074;2023-12-29T13:37:31;8.90;99.90
21508;DHT22;10915;54.352;9.074;2023-12-29T13:40:17;8.90;99.90
21508;DHT22;10915;54.352;9.074;2023-12-29T13:42:48;8.80;99.90
21508;DHT22;10915;54.352;9.074;2023-12-29T13:45:16;8.80;99.90
21508;DHT22;10915;54.352;9.074;2023-12-29T13:47:43;8.80;99.90
21508;DHT22;10915;54.352;9.074;2023-12-29T13:50:10;8.90;99.90
21508;DHT22;10915;54.352;9.074;2023-12-29T13:52:36;8.80;99.90
21508;DHT22;10915;54.352;9.074;2023-12-29T13:55:03;8.80;99.90
21508;DHT22;10915;54.352;9.074;2023-12-29T13:57:32;8.80;99.90
21508;DHT22;10915;54.352;9.074;2023-12-29T14:00:26;8.80;99.90
21508;DHT22;10915;54.352;9.074;2023-12-29T14:05:28;8.80;99.90
21508;DHT22;10915;54.352;9.074;2023-12-29T14:10:33;8.70;99.90
21508;DHT22;10915;54.352;9.074;2023-12-29T14:13:09;8.70;99.90
21508;DHT22;10915;54.352;9.074;2023-12-29T14:15:45;8.70;99.90
21508;DHT22;10915;54.352;9.074;2023-12-29T14:21:23;8.70;99.90
21508;DHT22;10915;54.352;9.074;2023-12-29T14:24:11;8.70;99.90
21508;DHT22;10915;54.352;9.074;2023-12-29T14:29:20;8.60;99.90
21508;DHT22;10915;54.352;9.074;2023-12-29T14:31:48;8.70;99.90
21508;DHT22;10915;54.352;9.074;2023-12-29T14:34:14;8.70;99.90
21508;DHT22;10915;54.352;9.074;2023-12-29T14:36:41;8.70;99.90
21508;DHT22;10915;54.352;9.074;2023-12-29T14:39:07;8.60;99.90
21508;DHT22;10915;54.352;9.074;2023-12-29T14:41:35;8.60;99.90
21508;DHT22;10915;54.352;9.074;2023-12-29T14:44:01;8.60;99.90
21508;DHT22;10915;54.352;9.074;2023-12-29T14:46:27;8.60;99.90
21508;DHT22;10915;54.352;9.074;2023-12-29T14:48:53;8.50;99.90
21508;DHT22;10915;54.352;9.074;2023-12-29T14:51:20;8.60;99.90
21508;DHT22;10915;54.352;9.074;2023-12-29T14:53:47;8.50;99.90
21508;DHT22;10915;54.352;9.074;2023-12-29T14:56:14;8.60;99.90
21508;DHT22;10915;54.352;9.074;2023-12-29T14:58:40;8.60;99.90
21508;DHT22;10915;54.352;9.074;2023-12-29T15:01:06;8.50;99.90
21508;DHT22;10915;54.352;9.074;2023-12-29T15:03:32;8.50;99.90
21508;DHT22;10915;54.352;9.074;2023-12-29T15:05:58;8.60;99.90
21508;DHT22;10915;54.352;9.074;2023-12-29T15:08:24;8.50;99.90
21508;DHT22;10915;54.352;9.074;2023-12-29T15:10:50;8.50;99.90
21508;DHT22;10915;54.352;9.074;2023-12-29T15:13:16;8.50;99.90
21508;DHT22;10915;54.352;9.074;2023-12-29T15:15:42;8.50;99.90
21508;DHT22;10915;54.352;9.074;2023-12-29T15:18:08;8.60;99.90
21508;DHT22;10915;54.352;9.074;2023-12-29T15:20:33;8.60;99.90
21508;DHT22;10915;54.352;9.074;2023-12-29T15:22:59;8.50;99.90
21508;DHT22;10915;54.352;9.074;2023-12-29T15:25:26;8.50;99.90
21508;DHT22;10915;54.352;9.074;2023-12-29T15:27:53;8.50;99.90
21508;DHT22;10915;54.352;9.074;2023-12-29T15:30:19;8.50;99.90
21508;DHT22;10915;54.352;9.074;2023-12-29T15:32:44;8.50;99.90
21508;DHT22;10915;54.352;9.074;2023-12-29T15:35:10;8.50;99.90
21508;DHT22;10915;54.352;9.074;2023-12-29T15:37:35;8.40;99.90
21508;DHT22;10915;54.352;9.074;2023-12-29T15:40:02;8.40;99.90
21508;DHT22;10915;54.352;9.074;2023-12-29T15:42:32;8.40;99.90
21508;DHT22;10915;54.352;9.074;2023-12-29T15:44:58;8.40;99.90
21508;DHT22;10915;54.352;9.074;2023-12-29T15:47:23;8.40;99.90
21508;DHT22;10915;54.352;9.074;2023-12-29T15:49:49;8.40;99.90
21508;DHT22;10915;54.352;9.074;2023-12-29T15:52:14;8.40;99.90
21508;DHT22;10915;54.352;9.074;2023-12-29T15:54:40;8.40;99.90
21508;DHT22;10915;54.352;9.074;2023-12-29T15:57:05;8.40;99.90
21508;DHT22;10915;54.352;9.074;2023-12-29T15:59:35;8.40;99.90
21508;DHT22;10915;54.352;9.074;2023-12-29T16:02:00;8.40;99.90
21508;DHT22;10915;54.352;9.074;2023-12-29T16:04:26;8.40;99.90
21508;DHT22;10915;54.352;9.074;2023-12-29T16:06:56;8.40;99.90
21508;DHT22;10915;54.352;9.074;2023-12-29T16:09:22;8.40;99.90
21508;DHT22;10915;54.352;9.074;2023-12-29T16:11:48;8.40;99.90
21508;DHT22;10915;54.352;9.074;2023-12-29T16:14:20;8.40;99.90